Main page
METAR-TAF:

METAR-TAF

Airports :

Oslo Airport. Gardermoen

Oslo, Norway

latitude: 60-12N, longitude: 011-05E, elevation: 208 m

Current weather observation

The report was made 15 minutes ago, at 23:50 UTC
Wind 5 kt from the North
Temperature -7°C
Humidity 86%
Pressure 1014 hPa
Visibility 10 km or more
Broken clouds at a height of 1400 ft

METAR: ENGM 042350Z 01005KT 9999 BKN014 M07/M09 Q1014

Time: 01:05 (00:05 UTC)

Forecast

Forecast valid from 05 at 00 UTC to 05 at 24 UTC
Wind 7 kt from the North/Northeast
Visibility 10 km or more
Few clouds at a height of 1500 ft
Scattered clouds at a height of 3000 ft
Probability 30% :
Temporary
from 05 at 00 UTC to 05 at 06 UTC
Broken clouds at a height of 1200 ft

TAF: ENGM 0500/0524 02007KT 9999 FEW015 SCT030 PROB30 TEMPO 0500/0506 BKN012

Weather observations and forecasts of more than 4000 airports (METAR and TAF reports).

The available stations are represented by yellow and red dots on the map.

Hover mouse over dot to see the name of the station.

Then click to see weather observations and forecasts.

To change the map : click on the green buttons with a black cross to zoom in, on the green button with a dash to zoom out, or on the green arrows for adjacent maps.


METAR-TAF: